sensor_id;sensor_type;location;lat;lon;timestamp;P1;durP1;ratioP1;P2;durP2;ratioP2
74941;SDS011;63506;49.346;8.798;2022-11-15T00:00:32;8.90;;;5.95;;
74941;SDS011;63506;49.346;8.798;2022-11-15T00:03:17;8.95;;;5.72;;
74941;SDS011;63506;49.346;8.798;2022-11-15T00:06:03;7.63;;;5.70;;
74941;SDS011;63506;49.346;8.798;2022-11-15T00:08:47;9.70;;;6.88;;
74941;SDS011;63506;49.346;8.798;2022-11-15T00:11:32;5.90;;;4.97;;
74941;SDS011;63506;49.346;8.798;2022-11-15T00:14:18;10.63;;;5.45;;
74941;SDS011;63506;49.346;8.798;2022-11-15T00:17:05;6.80;;;6.18;;
74941;SDS011;63506;49.346;8.798;2022-11-15T00:19:52;6.47;;;5.72;;
74941;SDS011;63506;49.346;8.798;2022-11-15T00:22:39;8.32;;;5.80;;
74941;SDS011;63506;49.346;8.798;2022-11-15T00:25:28;7.70;;;6.90;;
74941;SDS011;63506;49.346;8.798;2022-11-15T00:28:13;8.05;;;5.68;;
74941;SDS011;63506;49.346;8.798;2022-11-15T00:31:03;8.65;;;5.90;;
74941;SDS011;63506;49.346;8.798;2022-11-15T00:33:48;9.73;;;6.72;;
74941;SDS011;63506;49.346;8.798;2022-11-15T00:36:34;6.47;;;4.78;;
74941;SDS011;63506;49.346;8.798;2022-11-15T00:39:22;6.47;;;5.90;;
74941;SDS011;63506;49.346;8.798;2022-11-15T00:42:08;7.45;;;6.22;;
74941;SDS011;63506;49.346;8.798;2022-11-15T00:44:53;10.65;;;8.25;;
74941;SDS011;63506;49.346;8.798;2022-11-15T00:47:37;8.15;;;6.25;;
74941;SDS011;63506;49.346;8.798;2022-11-15T00:50:21;9.23;;;7.38;;
74941;SDS011;63506;49.346;8.798;2022-11-15T00:53:11;7.57;;;6.38;;
74941;SDS011;63506;49.346;8.798;2022-11-15T00:55:56;7.63;;;6.85;;
74941;SDS011;63506;49.346;8.798;2022-11-15T00:58:40;7.82;;;7.03;;
74941;SDS011;63506;49.346;8.798;2022-11-15T01:01:27;9.70;;;6.15;;
74941;SDS011;63506;49.346;8.798;2022-11-15T01:04:14;12.38;;;8.05;;
74941;SDS011;63506;49.346;8.798;2022-11-15T01:06:58;7.63;;;6.10;;
74941;SDS011;63506;49.346;8.798;2022-11-15T01:09:42;14.77;;;7.30;;
74941;SDS011;63506;49.346;8.798;2022-11-15T01:12:27;11.05;;;6.75;;
74941;SDS011;63506;49.346;8.798;2022-11-15T01:15:11;9.07;;;7.78;;
74941;SDS011;63506;49.346;8.798;2022-11-15T01:17:55;7.03;;;6.15;;
74941;SDS011;63506;49.346;8.798;2022-11-15T01:20:40;8.93;;;7.30;;
74941;SDS011;63506;49.346;8.798;2022-11-15T01:23:26;8.93;;;8.02;;
74941;SDS011;63506;49.346;8.798;2022-11-15T01:26:13;8.10;;;6.43;;
74941;SDS011;63506;49.346;8.798;2022-11-15T01:29:01;8.10;;;6.90;;
74941;SDS011;63506;49.346;8.798;2022-11-15T01:31:48;8.20;;;6.65;;
74941;SDS011;63506;49.346;8.798;2022-11-15T01:34:32;10.55;;;7.50;;
74941;SDS011;63506;49.346;8.798;2022-11-15T01:37:21;7.68;;;6.25;;
74941;SDS011;63506;49.346;8.798;2022-11-15T01:40:06;9.07;;;6.60;;
74941;SDS011;63506;49.346;8.798;2022-11-15T01:42:51;9.20;;;6.95;;
74941;SDS011;63506;49.346;8.798;2022-11-15T01:45:37;8.43;;;6.35;;
74941;SDS011;63506;49.346;8.798;2022-11-15T01:48:25;11.38;;;7.82;;
74941;SDS011;63506;49.346;8.798;2022-11-15T01:51:14;6.97;;;6.30;;
74941;SDS011;63506;49.346;8.798;2022-11-15T01:54:01;6.78;;;6.07;;
74941;SDS011;63506;49.346;8.798;2022-11-15T01:56:47;6.88;;;6.18;;
74941;SDS011;63506;49.346;8.798;2022-11-15T01:59:40;5.95;;;5.18;;
74941;SDS011;63506;49.346;8.798;2022-11-15T02:02:26;6.45;;;5.60;;
74941;SDS011;63506;49.346;8.798;2022-11-15T02:05:13;10.73;;;5.93;;
74941;SDS011;63506;49.346;8.798;2022-11-15T02:08:00;9.25;;;6.75;;
74941;SDS011;63506;49.346;8.798;2022-11-15T02:10:50;7.55;;;6.22;;
74941;SDS011;63506;49.346;8.798;2022-11-15T02:13:37;11.00;;;6.93;;
74941;SDS011;63506;49.346;8.798;2022-11-15T02:30:52;10.23;;;5.72;;
74941;SDS011;63506;49.346;8.798;2022-11-15T02:33:51;12.18;;;7.82;;
74941;SDS011;63506;49.346;8.798;2022-11-15T02:39:46;9.02;;;6.20;;
74941;SDS011;63506;49.346;8.798;2022-11-15T02:42:34;7.18;;;5.82;;
74941;SDS011;63506;49.346;8.798;2022-11-15T02:45:41;9.55;;;7.40;;
74941;SDS011;63506;49.346;8.798;2022-11-15T02:48:31;6.10;;;4.65;;
74941;SDS011;63506;49.346;8.798;2022-11-15T02:51:15;7.20;;;6.07;;
74941;SDS011;63506;49.346;8.798;2022-11-15T02:54:03;6.68;;;6.00;;
74941;SDS011;63506;49.346;8.798;2022-11-15T02:56:53;7.32;;;6.57;;
74941;SDS011;63506;49.346;8.798;2022-11-15T03:05:35;9.68;;;6.03;;
74941;SDS011;63506;49.346;8.798;2022-11-15T03:08:38;7.35;;;6.18;;
74941;SDS011;63506;49.346;8.798;2022-11-15T03:11:26;12.70;;;6.90;;
74941;SDS011;63506;49.346;8.798;2022-11-15T03:17:16;6.25;;;5.65;;
74941;SDS011;63506;49.346;8.798;2022-11-15T03:20:05;6.53;;;5.82;;
74941;SDS011;63506;49.346;8.798;2022-11-15T03:22:50;7.10;;;5.22;;
74941;SDS011;63506;49.346;8.798;2022-11-15T03:25:40;8.52;;;6.30;;
74941;SDS011;63506;49.346;8.798;2022-11-15T03:28:26;7.97;;;5.72;;
74941;SDS011;63506;49.346;8.798;2022-11-15T03:31:13;10.52;;;6.15;;
74941;SDS011;63506;49.346;8.798;2022-11-15T03:37:03;11.90;;;6.30;;
74941;SDS011;63506;49.346;8.798;2022-11-15T03:39:48;31.27;;;8.95;;
74941;SDS011;63506;49.346;8.798;2022-11-15T03:42:43;11.52;;;6.57;;
74941;SDS011;63506;49.346;8.798;2022-11-15T03:45:36;10.45;;;7.10;;
74941;SDS011;63506;49.346;8.798;2022-11-15T03:48:25;8.43;;;6.95;;
74941;SDS011;63506;49.346;8.798;2022-11-15T03:51:11;11.20;;;7.10;;
74941;SDS011;63506;49.346;8.798;2022-11-15T03:53:58;10.15;;;7.65;;
74941;SDS011;63506;49.346;8.798;2022-11-15T03:56:45;13.52;;;7.95;;
74941;SDS011;63506;49.346;8.798;2022-11-15T03:59:32;9.65;;;7.82;;
74941;SDS011;63506;49.346;8.798;2022-11-15T04:02:17;8.68;;;7.28;;
74941;SDS011;63506;49.346;8.798;2022-11-15T04:05:01;8.80;;;7.63;;
74941;SDS011;63506;49.346;8.798;2022-11-15T04:07:48;13.45;;;6.78;;
74941;SDS011;63506;49.346;8.798;2022-11-15T04:10:35;9.20;;;8.02;;
74941;SDS011;63506;49.346;8.798;2022-11-15T04:13:19;13.27;;;8.15;;
74941;SDS011;63506;49.346;8.798;2022-11-15T04:16:03;10.23;;;8.23;;
74941;SDS011;63506;49.346;8.798;2022-11-15T04:18:50;9.77;;;6.55;;
74941;SDS011;63506;49.346;8.798;2022-11-15T04:21:54;9.00;;;6.38;;
74941;SDS011;63506;49.346;8.798;2022-11-15T04:24:57;7.45;;;6.47;;
74941;SDS011;63506;49.346;8.798;2022-11-15T04:27:46;7.93;;;6.40;;
74941;SDS011;63506;49.346;8.798;2022-11-15T04:30:31;9.85;;;7.25;;
74941;SDS011;63506;49.346;8.798;2022-11-15T04:33:15;10.95;;;7.80;;
74941;SDS011;63506;49.346;8.798;2022-11-15T04:36:00;9.60;;;8.38;;
74941;SDS011;63506;49.346;8.798;2022-11-15T04:39:03;11.38;;;8.52;;
74941;SDS011;63506;49.346;8.798;2022-11-15T04:41:47;9.90;;;7.43;;
74941;SDS011;63506;49.346;8.798;2022-11-15T04:44:37;8.52;;;6.57;;
74941;SDS011;63506;49.346;8.798;2022-11-15T04:47:24;11.90;;;9.13;;
74941;SDS011;63506;49.346;8.798;2022-11-15T04:50:08;13.88;;;11.70;;
74941;SDS011;63506;49.346;8.798;2022-11-15T04:52:55;13.48;;;11.23;;
74941;SDS011;63506;49.346;8.798;2022-11-15T04:55:44;13.85;;;11.77;;
74941;SDS011;63506;49.346;8.798;2022-11-15T04:58:29;14.13;;;12.43;;
74941;SDS011;63506;49.346;8.798;2022-11-15T05:01:16;16.48;;;13.30;;
74941;SDS011;63506;49.346;8.798;2022-11-15T05:04:01;13.07;;;10.35;;
74941;SDS011;63506;49.346;8.798;2022-11-15T05:07:03;13.32;;;10.57;;
74941;SDS011;63506;49.346;8.798;2022-11-15T05:09:55;13.45;;;10.38;;
74941;SDS011;63506;49.346;8.798;2022-11-15T05:12:40;11.23;;;10.05;;
74941;SDS011;63506;49.346;8.798;2022-11-15T05:15:27;13.23;;;9.23;;
74941;SDS011;63506;49.346;8.798;2022-11-15T05:18:12;14.57;;;10.68;;
74941;SDS011;63506;49.346;8.798;2022-11-15T05:21:03;10.38;;;8.93;;
74941;SDS011;63506;49.346;8.798;2022-11-15T05:23:47;11.38;;;9.30;;
74941;SDS011;63506;49.346;8.798;2022-11-15T05:26:31;9.75;;;7.82;;
74941;SDS011;63506;49.346;8.798;2022-11-15T05:29:21;8.57;;;7.45;;
74941;SDS011;63506;49.346;8.798;2022-11-15T05:32:10;10.25;;;8.15;;
74941;SDS011;63506;49.346;8.798;2022-11-15T05:34:56;11.43;;;8.38;;
74941;SDS011;63506;49.346;8.798;2022-11-15T05:37:40;10.27;;;8.05;;
74941;SDS011;63506;49.346;8.798;2022-11-15T05:40:27;8.75;;;7.85;;
74941;SDS011;63506;49.346;8.798;2022-11-15T05:43:13;10.52;;;8.95;;
74941;SDS011;63506;49.346;8.798;2022-11-15T05:45:57;9.27;;;7.25;;
74941;SDS011;63506;49.346;8.798;2022-11-15T05:48:44;14.13;;;8.63;;
74941;SDS011;63506;49.346;8.798;2022-11-15T05:51:28;13.77;;;8.65;;
74941;SDS011;63506;49.346;8.798;2022-11-15T05:54:16;9.20;;;8.20;;
74941;SDS011;63506;49.346;8.798;2022-11-15T05:57:01;8.98;;;8.07;;
74941;SDS011;63506;49.346;8.798;2022-11-15T05:59:45;7.72;;;6.95;;
74941;SDS011;63506;49.346;8.798;2022-11-15T06:02:32;9.73;;;8.73;;
74941;SDS011;63506;49.346;8.798;2022-11-15T06:05:17;10.45;;;7.75;;
74941;SDS011;63506;49.346;8.798;2022-11-15T06:08:01;10.05;;;7.53;;
74941;SDS011;63506;49.346;8.798;2022-11-15T06:10:50;9.73;;;7.25;;
74941;SDS011;63506;49.346;8.798;2022-11-15T06:13:37;10.63;;;7.65;;
74941;SDS011;63506;49.346;8.798;2022-11-15T06:16:21;8.27;;;7.22;;
74941;SDS011;63506;49.346;8.798;2022-11-15T06:19:06;5.95;;;5.38;;
74941;SDS011;63506;49.346;8.798;2022-11-15T06:21:51;9.93;;;7.38;;
74941;SDS011;63506;49.346;8.798;2022-11-15T06:24:36;8.68;;;6.80;;
74941;SDS011;63506;49.346;8.798;2022-11-15T06:27:20;10.80;;;8.95;;
74941;SDS011;63506;49.346;8.798;2022-11-15T06:30:05;9.52;;;7.97;;
74941;SDS011;63506;49.346;8.798;2022-11-15T06:32:57;8.32;;;6.93;;
74941;SDS011;63506;49.346;8.798;2022-11-15T06:35:42;11.25;;;9.80;;
74941;SDS011;63506;49.346;8.798;2022-11-15T06:38:31;9.70;;;8.70;;
74941;SDS011;63506;49.346;8.798;2022-11-15T06:41:16;13.60;;;12.00;;
74941;SDS011;63506;49.346;8.798;2022-11-15T06:44:01;12.20;;;10.07;;
74941;SDS011;63506;49.346;8.798;2022-11-15T06:46:47;13.35;;;11.95;;
74941;SDS011;63506;49.346;8.798;2022-11-15T06:49:32;14.68;;;9.73;;
74941;SDS011;63506;49.346;8.798;2022-11-15T06:52:16;9.73;;;8.75;;
74941;SDS011;63506;49.346;8.798;2022-11-15T06:55:03;16.90;;;13.00;;
74941;SDS011;63506;49.346;8.798;2022-11-15T06:57:48;12.77;;;10.05;;
74941;SDS011;63506;49.346;8.798;2022-11-15T07:00:33;15.18;;;12.95;;
74941;SDS011;63506;49.346;8.798;2022-11-15T07:03:17;17.75;;;14.25;;
74941;SDS011;63506;49.346;8.798;2022-11-15T07:06:02;21.25;;;15.98;;
74941;SDS011;63506;49.346;8.798;2022-11-15T07:08:47;13.73;;;11.57;;
74941;SDS011;63506;49.346;8.798;2022-11-15T07:11:32;15.60;;;12.73;;
74941;SDS011;63506;49.346;8.798;2022-11-15T07:14:17;17.30;;;13.05;;
74941;SDS011;63506;49.346;8.798;2022-11-15T07:17:03;15.27;;;12.95;;
74941;SDS011;63506;49.346;8.798;2022-11-15T07:19:47;12.23;;;11.00;;
74941;SDS011;63506;49.346;8.798;2022-11-15T07:22:32;14.75;;;12.27;;
74941;SDS011;63506;49.346;8.798;2022-11-15T07:25:17;14.63;;;11.65;;
74941;SDS011;63506;49.346;8.798;2022-11-15T07:28:01;14.23;;;12.43;;
74941;SDS011;63506;49.346;8.798;2022-11-15T07:30:46;14.32;;;12.70;;
74941;SDS011;63506;49.346;8.798;2022-11-15T07:33:30;16.45;;;11.00;;
74941;SDS011;63506;49.346;8.798;2022-11-15T07:36:15;14.60;;;13.10;;
74941;SDS011;63506;49.346;8.798;2022-11-15T07:39:01;13.00;;;11.70;;
74941;SDS011;63506;49.346;8.798;2022-11-15T07:41:46;14.38;;;11.02;;
74941;SDS011;63506;49.346;8.798;2022-11-15T07:44:32;11.15;;;9.75;;
74941;SDS011;63506;49.346;8.798;2022-11-15T07:47:16;9.95;;;8.90;;
74941;SDS011;63506;49.346;8.798;2022-11-15T07:50:00;11.07;;;9.98;;
74941;SDS011;63506;49.346;8.798;2022-11-15T07:52:45;14.25;;;9.40;;
74941;SDS011;63506;49.346;8.798;2022-11-15T07:55:29;8.30;;;7.53;;
74941;SDS011;63506;49.346;8.798;2022-11-15T07:58:14;13.23;;;8.52;;
74941;SDS011;63506;49.346;8.798;2022-11-15T08:01:01;9.35;;;7.55;;
74941;SDS011;63506;49.346;8.798;2022-11-15T08:03:46;10.18;;;7.47;;
74941;SDS011;63506;49.346;8.798;2022-11-15T08:06:30;9.25;;;7.95;;
74941;SDS011;63506;49.346;8.798;2022-11-15T08:09:17;7.68;;;6.65;;
74941;SDS011;63506;49.346;8.798;2022-11-15T08:12:01;7.70;;;6.13;;
74941;SDS011;63506;49.346;8.798;2022-11-15T08:14:46;11.05;;;6.68;;
74941;SDS011;63506;49.346;8.798;2022-11-15T08:17:30;8.65;;;6.20;;
74941;SDS011;63506;49.346;8.798;2022-11-15T08:20:16;9.65;;;7.20;;
74941;SDS011;63506;49.346;8.798;2022-11-15T08:23:01;16.00;;;6.03;;
74941;SDS011;63506;49.346;8.798;2022-11-15T08:25:46;11.73;;;6.57;;
74941;SDS011;63506;49.346;8.798;2022-11-15T08:28:31;7.78;;;5.15;;
74941;SDS011;63506;49.346;8.798;2022-11-15T08:31:17;8.95;;;5.60;;
74941;SDS011;63506;49.346;8.798;2022-11-15T08:34:05;9.73;;;6.95;;
74941;SDS011;63506;49.346;8.798;2022-11-15T08:36:49;8.93;;;5.85;;
74941;SDS011;63506;49.346;8.798;2022-11-15T08:39:34;7.55;;;5.93;;
74941;SDS011;63506;49.346;8.798;2022-11-15T08:42:18;6.53;;;5.32;;
74941;SDS011;63506;49.346;8.798;2022-11-15T08:45:03;9.30;;;4.65;;
74941;SDS011;63506;49.346;8.798;2022-11-15T08:47:48;9.75;;;6.60;;
74941;SDS011;63506;49.346;8.798;2022-11-15T08:50:32;12.90;;;7.28;;
74941;SDS011;63506;49.346;8.798;2022-11-15T08:53:17;10.00;;;8.13;;
74941;SDS011;63506;49.346;8.798;2022-11-15T08:56:01;9.88;;;7.95;;
74941;SDS011;63506;49.346;8.798;2022-11-15T08:58:46;10.02;;;7.70;;
74941;SDS011;63506;49.346;8.798;2022-11-15T09:01:31;7.78;;;5.93;;
74941;SDS011;63506;49.346;8.798;2022-11-15T09:04:17;15.75;;;11.48;;
74941;SDS011;63506;49.346;8.798;2022-11-15T09:07:01;16.30;;;9.80;;
74941;SDS011;63506;49.346;8.798;2022-11-15T09:09:46;14.52;;;10.85;;
74941;SDS011;63506;49.346;8.798;2022-11-15T09:12:30;11.05;;;8.15;;
74941;SDS011;63506;49.346;8.798;2022-11-15T09:15:15;9.40;;;8.00;;
74941;SDS011;63506;49.346;8.798;2022-11-15T09:18:00;9.88;;;7.97;;
74941;SDS011;63506;49.346;8.798;2022-11-15T09:20:44;10.98;;;7.82;;
74941;SDS011;63506;49.346;8.798;2022-11-15T09:23:29;8.35;;;7.28;;
74941;SDS011;63506;49.346;8.798;2022-11-15T09:26:13;7.97;;;7.07;;
74941;SDS011;63506;49.346;8.798;2022-11-15T09:28:58;9.38;;;8.38;;
74941;SDS011;63506;49.346;8.798;2022-11-15T09:31:42;9.55;;;7.32;;
74941;SDS011;63506;49.346;8.798;2022-11-15T09:34:27;9.45;;;8.05;;
74941;SDS011;63506;49.346;8.798;2022-11-15T09:37:11;9.82;;;6.88;;
74941;SDS011;63506;49.346;8.798;2022-11-15T09:39:56;11.15;;;7.68;;
74941;SDS011;63506;49.346;8.798;2022-11-15T09:45:32;10.15;;;7.80;;
74941;SDS011;63506;49.346;8.798;2022-11-15T09:51:41;7.90;;;7.10;;
74941;SDS011;63506;49.346;8.798;2022-11-15T09:54:19;10.73;;;8.23;;
74941;SDS011;63506;49.346;8.798;2022-11-15T09:56:48;11.07;;;6.80;;
74941;SDS011;63506;49.346;8.798;2022-11-15T10:04:59;8.75;;;7.03;;
74941;SDS011;63506;49.346;8.798;2022-11-15T10:09:56;8.50;;;6.82;;
74941;SDS011;63506;49.346;8.798;2022-11-15T10:12:24;10.35;;;6.68;;
74941;SDS011;63506;49.346;8.798;2022-11-15T10:14:58;7.45;;;5.43;;
74941;SDS011;63506;49.346;8.798;2022-11-15T10:22:35;7.43;;;4.93;;
74941;SDS011;63506;49.346;8.798;2022-11-15T10:27:31;5.50;;;4.85;;
74941;SDS011;63506;49.346;8.798;2022-11-15T10:29:57;4.65;;;4.07;;
74941;SDS011;63506;49.346;8.798;2022-11-15T10:32:23;6.35;;;4.97;;
74941;SDS011;63506;49.346;8.798;2022-11-15T10:34:53;4.70;;;4.13;;
74941;SDS011;63506;49.346;8.798;2022-11-15T10:37:28;3.90;;;3.50;;
74941;SDS011;63506;49.346;8.798;2022-11-15T10:45:40;4.15;;;3.75;;
74941;SDS011;63506;49.346;8.798;2022-11-15T10:48:27;4.95;;;4.45;;
74941;SDS011;63506;49.346;8.798;2022-11-15T10:50:55;10.63;;;9.07;;
74941;SDS011;63506;49.346;8.798;2022-11-15T10:55:53;6.25;;;4.75;;
74941;SDS011;63506;49.346;8.798;2022-11-15T10:58:41;7.05;;;6.15;;
74941;SDS011;63506;49.346;8.798;2022-11-15T11:01:11;6.13;;;4.28;;
74941;SDS011;63506;49.346;8.798;2022-11-15T11:03:39;5.63;;;4.93;;
74941;SDS011;63506;49.346;8.798;2022-11-15T11:06:14;8.45;;;4.15;;
74941;SDS011;63506;49.346;8.798;2022-11-15T11:08:58;7.45;;;5.18;;
74941;SDS011;63506;49.346;8.798;2022-11-15T11:11:25;7.78;;;5.30;;
74941;SDS011;63506;49.346;8.798;2022-11-15T11:13:51;9.75;;;5.85;;
74941;SDS011;63506;49.346;8.798;2022-11-15T11:16:32;7.03;;;5.20;;
74941;SDS011;63506;49.346;8.798;2022-11-15T11:27:00;5.53;;;3.83;;
74941;SDS011;63506;49.346;8.798;2022-11-15T11:39:54;5.38;;;4.72;;
74941;SDS011;63506;49.346;8.798;2022-11-15T11:47:24;9.25;;;5.55;;
74941;SDS011;63506;49.346;8.798;2022-11-15T11:49:56;6.97;;;5.15;;
74941;SDS011;63506;49.346;8.798;2022-11-15T11:52:29;9.40;;;5.63;;
74941;SDS011;63506;49.346;8.798;2022-11-15T11:55:01;5.72;;;4.63;;
74941;SDS011;63506;49.346;8.798;2022-11-15T11:57:33;6.97;;;4.63;;
74941;SDS011;63506;49.346;8.798;2022-11-15T12:00:04;7.65;;;6.05;;
74941;SDS011;63506;49.346;8.798;2022-11-15T12:02:43;7.82;;;4.57;;
74941;SDS011;63506;49.346;8.798;2022-11-15T12:05:16;5.60;;;4.25;;
74941;SDS011;63506;49.346;8.798;2022-11-15T12:10:28;6.20;;;4.43;;
74941;SDS011;63506;49.346;8.798;2022-11-15T12:12:56;9.02;;;5.47;;
74941;SDS011;63506;49.346;8.798;2022-11-15T12:15:35;6.88;;;5.63;;
74941;SDS011;63506;49.346;8.798;2022-11-15T12:18:04;8.18;;;6.28;;
74941;SDS011;63506;49.346;8.798;2022-11-15T12:20:34;8.63;;;5.22;;
74941;SDS011;63506;49.346;8.798;2022-11-15T12:23:17;6.07;;;4.43;;
74941;SDS011;63506;49.346;8.798;2022-11-15T12:30:56;7.05;;;5.57;;
74941;SDS011;63506;49.346;8.798;2022-11-15T12:41:17;6.60;;;5.60;;
74941;SDS011;63506;49.346;8.798;2022-11-15T12:43:44;8.25;;;5.43;;
74941;SDS011;63506;49.346;8.798;2022-11-15T12:46:12;5.30;;;4.80;;
74941;SDS011;63506;49.346;8.798;2022-11-15T12:51:09;6.45;;;4.18;;
74941;SDS011;63506;49.346;8.798;2022-11-15T12:53:37;9.27;;;5.07;;
74941;SDS011;63506;49.346;8.798;2022-11-15T12:58:46;10.85;;;3.65;;
74941;SDS011;63506;49.346;8.798;2022-11-15T13:06:38;7.28;;;3.83;;
74941;SDS011;63506;49.346;8.798;2022-11-15T13:12:02;7.53;;;4.80;;
74941;SDS011;63506;49.346;8.798;2022-11-15T13:14:42;5.45;;;4.28;;
74941;SDS011;63506;49.346;8.798;2022-11-15T13:19:48;7.70;;;4.30;;
74941;SDS011;63506;49.346;8.798;2022-11-15T13:22:14;3.13;;;2.58;;
74941;SDS011;63506;49.346;8.798;2022-11-15T13:25:00;3.50;;;2.80;;
74941;SDS011;63506;49.346;8.798;2022-11-15T13:27:26;5.68;;;3.78;;
74941;SDS011;63506;49.346;8.798;2022-11-15T13:29:54;3.70;;;2.80;;
74941;SDS011;63506;49.346;8.798;2022-11-15T13:32:20;11.13;;;3.75;;
74941;SDS011;63506;49.346;8.798;2022-11-15T13:34:49;4.28;;;2.42;;
74941;SDS011;63506;49.346;8.798;2022-11-15T13:39:47;4.53;;;3.60;;
74941;SDS011;63506;49.346;8.798;2022-11-15T13:42:19;4.82;;;3.60;;
74941;SDS011;63506;49.346;8.798;2022-11-15T13:44:55;6.72;;;4.35;;
74941;SDS011;63506;49.346;8.798;2022-11-15T13:47:25;4.15;;;3.53;;
74941;SDS011;63506;49.346;8.798;2022-11-15T13:49:56;8.95;;;3.85;;
74941;SDS011;63506;49.346;8.798;2022-11-15T13:52:22;7.60;;;4.22;;
74941;SDS011;63506;49.346;8.798;2022-11-15T13:57:26;5.85;;;4.82;;
74941;SDS011;63506;49.346;8.798;2022-11-15T13:59:54;3.33;;;3.03;;
74941;SDS011;63506;49.346;8.798;2022-11-15T14:02:25;6.45;;;3.47;;
74941;SDS011;63506;49.346;8.798;2022-11-15T14:07:39;8.20;;;4.00;;
74941;SDS011;63506;49.346;8.798;2022-11-15T14:13:09;4.18;;;3.33;;
74941;SDS011;63506;49.346;8.798;2022-11-15T14:15:36;4.68;;;3.75;;
74941;SDS011;63506;49.346;8.798;2022-11-15T14:18:05;5.55;;;4.00;;
74941;SDS011;63506;49.346;8.798;2022-11-15T14:20:35;6.43;;;4.05;;
74941;SDS011;63506;49.346;8.798;2022-11-15T14:23:03;5.50;;;3.25;;
74941;SDS011;63506;49.346;8.798;2022-11-15T14:25:33;4.78;;;3.83;;
74941;SDS011;63506;49.346;8.798;2022-11-15T14:30:38;4.55;;;3.42;;
74941;SDS011;63506;49.346;8.798;2022-11-15T14:33:39;4.20;;;3.80;;
74941;SDS011;63506;49.346;8.798;2022-11-15T14:36:33;5.13;;;3.28;;
74941;SDS011;63506;49.346;8.798;2022-11-15T14:38:52;9.80;;;5.25;;
74941;SDS011;63506;49.346;8.798;2022-11-15T14:41:20;5.03;;;3.20;;
74941;SDS011;63506;49.346;8.798;2022-11-15T14:43:50;4.00;;;3.58;;
74941;SDS011;63506;49.346;8.798;2022-11-15T14:46:16;5.15;;;3.83;;
74941;SDS011;63506;49.346;8.798;2022-11-15T14:48:42;4.90;;;2.92;;
74941;SDS011;63506;49.346;8.798;2022-11-15T14:51:12;4.70;;;3.67;;
74941;SDS011;63506;49.346;8.798;2022-11-15T14:53:38;6.10;;;3.75;;
74941;SDS011;63506;49.346;8.798;2022-11-15T14:56:04;6.43;;;3.90;;
74941;SDS011;63506;49.346;8.798;2022-11-15T14:58:30;8.13;;;4.10;;
74941;SDS011;63506;49.346;8.798;2022-11-15T15:00:56;4.72;;;3.35;;
74941;SDS011;63506;49.346;8.798;2022-11-15T15:03:22;5.28;;;3.83;;
74941;SDS011;63506;49.346;8.798;2022-11-15T15:05:50;5.57;;;3.90;;
74941;SDS011;63506;49.346;8.798;2022-11-15T15:08:16;5.18;;;4.20;;
74941;SDS011;63506;49.346;8.798;2022-11-15T15:10:44;6.85;;;4.38;;
74941;SDS011;63506;49.346;8.798;2022-11-15T15:13:18;7.07;;;4.82;;
74941;SDS011;63506;49.346;8.798;2022-11-15T15:15:47;9.68;;;4.80;;
74941;SDS011;63506;49.346;8.798;2022-11-15T15:18:16;8.77;;;4.72;;
74941;SDS011;63506;49.346;8.798;2022-11-15T15:20:43;6.75;;;3.92;;
74941;SDS011;63506;49.346;8.798;2022-11-15T15:23:19;5.40;;;3.67;;
74941;SDS011;63506;49.346;8.798;2022-11-15T15:25:45;7.57;;;4.28;;
74941;SDS011;63506;49.346;8.798;2022-11-15T15:28:12;5.75;;;4.25;;
74941;SDS011;63506;49.346;8.798;2022-11-15T15:30:40;9.82;;;5.57;;
74941;SDS011;63506;49.346;8.798;2022-11-15T15:33:06;7.38;;;4.38;;
74941;SDS011;63506;49.346;8.798;2022-11-15T15:35:34;6.97;;;4.72;;
74941;SDS011;63506;49.346;8.798;2022-11-15T15:38:05;6.43;;;4.32;;
74941;SDS011;63506;49.346;8.798;2022-11-15T15:40:31;14.38;;;5.30;;
74941;SDS011;63506;49.346;8.798;2022-11-15T15:42:57;10.75;;;5.10;;
74941;SDS011;63506;49.346;8.798;2022-11-15T15:45:24;6.97;;;3.78;;
74941;SDS011;63506;49.346;8.798;2022-11-15T15:47:50;7.38;;;5.65;;
74941;SDS011;63506;49.346;8.798;2022-11-15T15:52:46;7.57;;;4.65;;
74941;SDS011;63506;49.346;8.798;2022-11-15T15:55:14;8.60;;;5.60;;
74941;SDS011;63506;49.346;8.798;2022-11-15T15:57:40;8.05;;;4.53;;
74941;SDS011;63506;49.346;8.798;2022-11-15T16:00:06;8.18;;;6.03;;
74941;SDS011;63506;49.346;8.798;2022-11-15T16:02:38;6.63;;;3.90;;
74941;SDS011;63506;49.346;8.798;2022-11-15T16:05:04;5.47;;;4.25;;
74941;SDS011;63506;49.346;8.798;2022-11-15T16:07:30;5.95;;;4.50;;
74941;SDS011;63506;49.346;8.798;2022-11-15T16:09:58;8.63;;;4.97;;
74941;SDS011;63506;49.346;8.798;2022-11-15T16:12:31;7.40;;;5.80;;
74941;SDS011;63506;49.346;8.798;2022-11-15T16:14:57;6.20;;;4.32;;
74941;SDS011;63506;49.346;8.798;2022-11-15T16:17:30;4.55;;;3.90;;
74941;SDS011;63506;49.346;8.798;2022-11-15T16:19:57;4.75;;;4.13;;
74941;SDS011;63506;49.346;8.798;2022-11-15T16:22:23;5.45;;;4.75;;
74941;SDS011;63506;49.346;8.798;2022-11-15T16:24:48;5.82;;;4.50;;
74941;SDS011;63506;49.346;8.798;2022-11-15T16:27:15;10.80;;;6.18;;
74941;SDS011;63506;49.346;8.798;2022-11-15T16:29:44;7.70;;;4.72;;
74941;SDS011;63506;49.346;8.798;2022-11-15T16:32:12;4.05;;;3.60;;
74941;SDS011;63506;49.346;8.798;2022-11-15T16:34:38;4.80;;;4.38;;
74941;SDS011;63506;49.346;8.798;2022-11-15T16:37:04;6.00;;;5.00;;
74941;SDS011;63506;49.346;8.798;2022-11-15T16:39:32;8.77;;;5.55;;
74941;SDS011;63506;49.346;8.798;2022-11-15T16:42:00;9.77;;;5.63;;
74941;SDS011;63506;49.346;8.798;2022-11-15T16:44:30;7.25;;;5.95;;
74941;SDS011;63506;49.346;8.798;2022-11-15T16:46:56;6.80;;;5.22;;
74941;SDS011;63506;49.346;8.798;2022-11-15T16:49:24;5.43;;;4.93;;
74941;SDS011;63506;49.346;8.798;2022-11-15T16:51:52;10.20;;;5.90;;
74941;SDS011;63506;49.346;8.798;2022-11-15T16:54:18;7.63;;;5.13;;
74941;SDS011;63506;49.346;8.798;2022-11-15T16:56:44;5.13;;;4.63;;
74941;SDS011;63506;49.346;8.798;2022-11-15T16:59:14;7.60;;;5.80;;
74941;SDS011;63506;49.346;8.798;2022-11-15T17:01:43;6.90;;;5.57;;
74941;SDS011;63506;49.346;8.798;2022-11-15T17:04:17;8.48;;;5.90;;
74941;SDS011;63506;49.346;8.798;2022-11-15T17:06:47;8.10;;;4.85;;
74941;SDS011;63506;49.346;8.798;2022-11-15T17:09:13;5.70;;;5.10;;
74941;SDS011;63506;49.346;8.798;2022-11-15T17:11:40;8.02;;;5.13;;
74941;SDS011;63506;49.346;8.798;2022-11-15T17:14:06;11.13;;;7.07;;
74941;SDS011;63506;49.346;8.798;2022-11-15T17:16:33;15.57;;;9.27;;
74941;SDS011;63506;49.346;8.798;2022-11-15T17:19:03;7.07;;;5.28;;
74941;SDS011;63506;49.346;8.798;2022-11-15T17:21:29;7.63;;;3.97;;
74941;SDS011;63506;49.346;8.798;2022-11-15T17:23:57;7.30;;;4.65;;
74941;SDS011;63506;49.346;8.798;2022-11-15T17:26:26;16.90;;;9.30;;
74941;SDS011;63506;49.346;8.798;2022-11-15T17:28:55;7.38;;;6.57;;
74941;SDS011;63506;49.346;8.798;2022-11-15T17:31:21;9.07;;;7.22;;
74941;SDS011;63506;49.346;8.798;2022-11-15T17:33:56;14.32;;;9.35;;
74941;SDS011;63506;49.346;8.798;2022-11-15T17:36:24;12.95;;;9.90;;
74941;SDS011;63506;49.346;8.798;2022-11-15T17:38:50;7.15;;;6.22;;
74941;SDS011;63506;49.346;8.798;2022-11-15T17:41:21;6.93;;;5.93;;
74941;SDS011;63506;49.346;8.798;2022-11-15T17:43:49;9.88;;;5.70;;
74941;SDS011;63506;49.346;8.798;2022-11-15T17:46:16;21.38;;;12.13;;
74941;SDS011;63506;49.346;8.798;2022-11-15T17:48:45;37.85;;;31.88;;
74941;SDS011;63506;49.346;8.798;2022-11-15T17:51:13;14.73;;;9.40;;
74941;SDS011;63506;49.346;8.798;2022-11-15T17:53:40;6.82;;;5.80;;
74941;SDS011;63506;49.346;8.798;2022-11-15T17:56:09;6.68;;;5.90;;
74941;SDS011;63506;49.346;8.798;2022-11-15T17:58:36;6.32;;;5.45;;
74941;SDS011;63506;49.346;8.798;2022-11-15T18:01:11;7.57;;;5.80;;
74941;SDS011;63506;49.346;8.798;2022-11-15T18:03:42;8.10;;;5.90;;